sensor_id;sensor_type;location;lat;lon;timestamp;pressure;altitude;pressure_sealevel;temperature;humidity
76046;BME280;64741;41.730;44.788;2023-08-20T00:00:55;991.4;;;31.6;33.1
76046;BME280;64741;41.730;44.788;2023-08-20T00:05:57;991.4;;;31.5;33.2
76046;BME280;64741;41.730;44.788;2023-08-20T00:11:05;991.4;;;31.4;33.2
76046;BME280;64741;41.730;44.788;2023-08-20T00:15:51;991.5;;;31.1;33.1
76046;BME280;64741;41.730;44.788;2023-08-20T00:20:57;991.5;;;31.1;33.5
76046;BME280;64741;41.730;44.788;2023-08-20T00:26:05;991.5;;;31.1;33.4
76046;BME280;64741;41.730;44.788;2023-08-20T00:30:59;991.4;;;31.1;33.6
76046;BME280;64741;41.730;44.788;2023-08-20T00:36:01;991.5;;;31.1;33.7
76046;BME280;64741;41.730;44.788;2023-08-20T00:40:59;991.5;;;31.1;33.7
76046;BME280;64741;41.730;44.788;2023-08-20T00:45:58;991.5;;;31.1;33.8
76046;BME280;64741;41.730;44.788;2023-08-20T00:51:01;991.6;;;31.1;33.2
76046;BME280;64741;41.730;44.788;2023-08-20T00:55:59;991.5;;;31;33.4
76046;BME280;64741;41.730;44.788;2023-08-20T01:01:05;991.5;;;31;33.5
76046;BME280;64741;41.730;44.788;2023-08-20T01:06:00;991.4;;;31;33.2
76046;BME280;64741;41.730;44.788;2023-08-20T01:11:06;991.4;;;30.9;33.5
76046;BME280;64741;41.730;44.788;2023-08-20T01:15:59;991.5;;;30.9;33.5
76046;BME280;64741;41.730;44.788;2023-08-20T01:21:06;991.5;;;31;33.5
76046;BME280;64741;41.730;44.788;2023-08-20T01:26:06;991.5;;;31;33.6
76046;BME280;64741;41.730;44.788;2023-08-20T01:30:59;991.5;;;31.1;33.3
76046;BME280;64741;41.730;44.788;2023-08-20T01:36:01;991.6;;;31.1;33.2
76046;BME280;64741;41.730;44.788;2023-08-20T01:40:59;991.6;;;31.1;33.1
76046;BME280;64741;41.730;44.788;2023-08-20T01:46:01;991.6;;;31.1;33
76046;BME280;64741;41.730;44.788;2023-08-20T01:51:01;991.6;;;31;33.2
76046;BME280;64741;41.730;44.788;2023-08-20T01:55:57;991.6;;;30.8;33.5
76046;BME280;64741;41.730;44.788;2023-08-20T02:00:59;991.6;;;30.9;33.5
76046;BME280;64741;41.730;44.788;2023-08-20T02:06:05;991.7;;;30.8;33.4
76046;BME280;64741;41.730;44.788;2023-08-20T02:10:33;991.7;;;30.7;33.6
76046;BME280;64741;41.730;44.788;2023-08-20T02:15:59;991.7;;;30.7;33.8
76046;BME280;64741;41.730;44.788;2023-08-20T02:21:05;991.7;;;30.6;33.9
76046;BME280;64741;41.730;44.788;2023-08-20T02:26:01;991.7;;;30.7;33.9
76046;BME280;64741;41.730;44.788;2023-08-20T02:30:46;991.7;;;30.7;33.6
76046;BME280;64741;41.730;44.788;2023-08-20T02:35:27;991.8;;;30.7;33.6
76046;BME280;64741;41.730;44.788;2023-08-20T02:40:59;991.8;;;30.6;33.6
76046;BME280;64741;41.730;44.788;2023-08-20T02:45:55;991.7;;;30.5;33.8
76046;BME280;64741;41.730;44.788;2023-08-20T02:50:59;991.8;;;30.5;33.9
76046;BME280;64741;41.730;44.788;2023-08-20T02:55:51;991.8;;;30.6;33.8
76046;BME280;64741;41.730;44.788;2023-08-20T03:00:57;991.8;;;30.5;33.8
76046;BME280;64741;41.730;44.788;2023-08-20T03:06:05;991.9;;;30.4;33.8
76046;BME280;64741;41.730;44.788;2023-08-20T03:10:59;991.9;;;30.4;33.9
76046;BME280;64741;41.730;44.788;2023-08-20T03:15:57;991.9;;;30.3;33.9
76046;BME280;64741;41.730;44.788;2023-08-20T03:20:55;991.9;;;30.2;34
76046;BME280;64741;41.730;44.788;2023-08-20T03:26:01;991.9;;;30.2;33.9
76046;BME280;64741;41.730;44.788;2023-08-20T03:30:59;992;;;30.1;33.9
76046;BME280;64741;41.730;44.788;2023-08-20T03:35:23;992;;;30.1;33.9
76046;BME280;64741;41.730;44.788;2023-08-20T03:40:55;992;;;30;34
76046;BME280;64741;41.730;44.788;2023-08-20T03:45:55;992;;;30.1;34.1
76046;BME280;64741;41.730;44.788;2023-08-20T03:50:55;992;;;30.1;34
76046;BME280;64741;41.730;44.788;2023-08-20T03:56:03;992;;;30.1;34
76046;BME280;64741;41.730;44.788;2023-08-20T04:01:03;992;;;30.1;34
76046;BME280;64741;41.730;44.788;2023-08-20T04:05:43;992;;;30.1;34.1
76046;BME280;64741;41.730;44.788;2023-08-20T04:10:55;991.9;;;30.1;34.4
76046;BME280;64741;41.730;44.788;2023-08-20T04:16:03;992;;;30.2;34.4
76046;BME280;64741;41.730;44.788;2023-08-20T04:20:53;992;;;30.2;34.5
76046;BME280;64741;41.730;44.788;2023-08-20T04:25:41;992;;;30.2;34.3
76046;BME280;64741;41.730;44.788;2023-08-20T04:30:59;991.9;;;30.1;34.5
76046;BME280;64741;41.730;44.788;2023-08-20T04:36:03;991.9;;;30.1;34.6
76046;BME280;64741;41.730;44.788;2023-08-20T04:41:03;991.8;;;30.1;34.7
76046;BME280;64741;41.730;44.788;2023-08-20T04:45:55;991.8;;;30.1;34.7
76046;BME280;64741;41.730;44.788;2023-08-20T04:51:05;991.8;;;30;34.7
76046;BME280;64741;41.730;44.788;2023-08-20T04:56:01;991.8;;;30.1;34.6
76046;BME280;64741;41.730;44.788;2023-08-20T05:01:01;991.8;;;30.1;34.3
76046;BME280;64741;41.730;44.788;2023-08-20T05:05:59;991.7;;;30.2;34.3
76046;BME280;64741;41.730;44.788;2023-08-20T05:10:57;991.7;;;30.2;34.4
76046;BME280;64741;41.730;44.788;2023-08-20T05:16:01;991.6;;;30.2;34.4
76046;BME280;64741;41.730;44.788;2023-08-20T05:20:59;991.6;;;30.2;34.2
76046;BME280;64741;41.730;44.788;2023-08-20T05:26:05;991.6;;;30.2;34.1
76046;BME280;64741;41.730;44.788;2023-08-20T05:30:57;991.6;;;30.2;34.1
76046;BME280;64741;41.730;44.788;2023-08-20T05:36:01;991.6;;;30.2;34.1
76046;BME280;64741;41.730;44.788;2023-08-20T05:40:41;991.5;;;30.3;34.1
76046;BME280;64741;41.730;44.788;2023-08-20T05:45:57;991.5;;;30.3;33.9
76046;BME280;64741;41.730;44.788;2023-08-20T05:51:05;991.5;;;30.3;33.6
76046;BME280;64741;41.730;44.788;2023-08-20T05:56:05;991.4;;;30.3;33.4
76046;BME280;64741;41.730;44.788;2023-08-20T06:01:01;991.4;;;30.4;33.1
76046;BME280;64741;41.730;44.788;2023-08-20T06:05:56;991.4;;;30.4;33
76046;BME280;64741;41.730;44.788;2023-08-20T06:11:01;991.4;;;30.4;33.1
76046;BME280;64741;41.730;44.788;2023-08-20T06:16:01;991.3;;;30.6;33.3
76046;BME280;64741;41.730;44.788;2023-08-20T06:20:59;991.3;;;30.6;32.9
76046;BME280;64741;41.730;44.788;2023-08-20T06:25:59;991.3;;;30.6;32.5
76046;BME280;64741;41.730;44.788;2023-08-20T06:31:05;991.3;;;30.7;32.5
76046;BME280;64741;41.730;44.788;2023-08-20T06:35:43;991.2;;;30.7;32.3
76046;BME280;64741;41.730;44.788;2023-08-20T06:40:59;991.1;;;30.7;32.1
76046;BME280;64741;41.730;44.788;2023-08-20T06:46:05;991.1;;;30.8;32.6
76046;BME280;64741;41.730;44.788;2023-08-20T06:51:07;991.1;;;30.8;32.5
76046;BME280;64741;41.730;44.788;2023-08-20T06:55:59;991.1;;;30.9;31.2
76046;BME280;64741;41.730;44.788;2023-08-20T07:00:59;991;;;30.9;30.9
76046;BME280;64741;41.730;44.788;2023-08-20T07:05:59;990.9;;;31;30.4
76046;BME280;64741;41.730;44.788;2023-08-20T07:10:59;990.9;;;31.1;30.5
76046;BME280;64741;41.730;44.788;2023-08-20T07:15:59;990.8;;;31.1;30.4
76046;BME280;64741;41.730;44.788;2023-08-20T07:21:05;990.8;;;31.1;30.4
76046;BME280;64741;41.730;44.788;2023-08-20T07:26:03;990.8;;;31.2;31.1
76046;BME280;64741;41.730;44.788;2023-08-20T07:31:05;990.7;;;31.3;31.1
76046;BME280;64741;41.730;44.788;2023-08-20T07:35:59;990.6;;;31.4;31
76046;BME280;64741;41.730;44.788;2023-08-20T07:40:59;990.6;;;31.4;30.7
76046;BME280;64741;41.730;44.788;2023-08-20T07:46:01;990.6;;;31.5;30.8
76046;BME280;64741;41.730;44.788;2023-08-20T07:50:59;990.5;;;31.5;31
76046;BME280;64741;41.730;44.788;2023-08-20T07:55:59;990.4;;;31.6;30.9
76046;BME280;64741;41.730;44.788;2023-08-20T08:00:57;990.3;;;31.6;31.3
76046;BME280;64741;41.730;44.788;2023-08-20T08:05:57;990.3;;;31.7;31.1
76046;BME280;64741;41.730;44.788;2023-08-20T08:10:57;990.3;;;31.7;31.3
76046;BME280;64741;41.730;44.788;2023-08-20T08:15:53;990.2;;;31.7;31.1
76046;BME280;64741;41.730;44.788;2023-08-20T08:21:05;990.1;;;31.8;31.5
76046;BME280;64741;41.730;44.788;2023-08-20T08:26:05;990.1;;;31.8;31.5
76046;BME280;64741;41.730;44.788;2023-08-20T08:30:31;990;;;31.8;31.4
76046;BME280;64741;41.730;44.788;2023-08-20T08:35:59;990;;;31.8;31.4
76046;BME280;64741;41.730;44.788;2023-08-20T08:41:06;989.9;;;31.7;31.4
76046;BME280;64741;41.730;44.788;2023-08-20T08:45:59;989.9;;;31.5;31.4
76046;BME280;64741;41.730;44.788;2023-08-20T08:50:57;989.9;;;31.4;31.3
76046;BME280;64741;41.730;44.788;2023-08-20T08:56:02;989.9;;;31.4;31.1
76046;BME280;64741;41.730;44.788;2023-08-20T09:01:05;989.9;;;31.3;31
76046;BME280;64741;41.730;44.788;2023-08-20T09:06:07;989.9;;;31.3;30.9
76046;BME280;64741;41.730;44.788;2023-08-20T09:10:54;989.7;;;31.3;30.7
76046;BME280;64741;41.730;44.788;2023-08-20T09:16:05;989.7;;;31.3;30.7
76046;BME280;64741;41.730;44.788;2023-08-20T09:21:06;989.6;;;31.3;30.4
76046;BME280;64741;41.730;44.788;2023-08-20T09:26:04;989.6;;;31.3;30.2
76046;BME280;64741;41.730;44.788;2023-08-20T09:31:01;989.6;;;31.4;30
76046;BME280;64741;41.730;44.788;2023-08-20T09:35:57;989.5;;;31.4;29.8
76046;BME280;64741;41.730;44.788;2023-08-20T09:41:01;989.4;;;31.4;29.7
76046;BME280;64741;41.730;44.788;2023-08-20T09:45:59;989.4;;;31.4;29.7
76046;BME280;64741;41.730;44.788;2023-08-20T09:51:06;989.4;;;31.5;29.9
76046;BME280;64741;41.730;44.788;2023-08-20T09:55:59;989.4;;;31.6;29.7
76046;BME280;64741;41.730;44.788;2023-08-20T10:01:05;989.4;;;31.7;29.7
76046;BME280;64741;41.730;44.788;2023-08-20T10:06:01;989.3;;;31.8;29.6
76046;BME280;64741;41.730;44.788;2023-08-20T10:10:45;989.3;;;31.8;29.5
76046;BME280;64741;41.730;44.788;2023-08-20T10:16:05;989.2;;;31.9;29.5
76046;BME280;64741;41.730;44.788;2023-08-20T10:21:05;989.1;;;31.9;29.5
76046;BME280;64741;41.730;44.788;2023-08-20T10:26:09;989.1;;;32;29.6
76046;BME280;64741;41.730;44.788;2023-08-20T10:31:03;989;;;32;29.6
76046;BME280;64741;41.730;44.788;2023-08-20T10:36:09;989;;;32;29.6
76046;BME280;64741;41.730;44.788;2023-08-20T10:41:01;988.9;;;32;29.6
76046;BME280;64741;41.730;44.788;2023-08-20T10:46:08;988.9;;;32.1;30.1
76046;BME280;64741;41.730;44.788;2023-08-20T10:51:09;988.8;;;32.1;30.4
76046;BME280;64741;41.730;44.788;2023-08-20T10:56:07;988.8;;;32.1;30.5
76046;BME280;64741;41.730;44.788;2023-08-20T11:01:15;988.8;;;32.1;30.4
76046;BME280;64741;41.730;44.788;2023-08-20T11:05:59;988.7;;;32.2;30.6
76046;BME280;64741;41.730;44.788;2023-08-20T11:11:05;988.6;;;32.2;30.4
76046;BME280;64741;41.730;44.788;2023-08-20T11:16:02;988.6;;;32.3;30.8
76046;BME280;64741;41.730;44.788;2023-08-20T11:21:03;988.6;;;32.3;31.3
76046;BME280;64741;41.730;44.788;2023-08-20T11:25:59;988.6;;;32.3;31.4
76046;BME280;64741;41.730;44.788;2023-08-20T11:30:59;988.5;;;32.3;31.1
76046;BME280;64741;41.730;44.788;2023-08-20T11:35:59;988.4;;;32.3;30.9
76046;BME280;64741;41.730;44.788;2023-08-20T11:41:01;988.5;;;32.3;30.9
76046;BME280;64741;41.730;44.788;2023-08-20T11:46:05;988.4;;;32.3;30.5
76046;BME280;64741;41.730;44.788;2023-08-20T11:50:59;988.3;;;32.3;30
76046;BME280;64741;41.730;44.788;2023-08-20T11:56:05;988.3;;;32.3;30.3
76046;BME280;64741;41.730;44.788;2023-08-20T12:00:59;988.2;;;32.3;30.2
76046;BME280;64741;41.730;44.788;2023-08-20T12:05:59;988.2;;;32.3;29.8
76046;BME280;64741;41.730;44.788;2023-08-20T12:11:03;988.2;;;32.2;29.5
76046;BME280;64741;41.730;44.788;2023-08-20T12:15:59;988.1;;;32.2;29.6
76046;BME280;64741;41.730;44.788;2023-08-20T12:21:01;988.2;;;32.2;29.6
76046;BME280;64741;41.730;44.788;2023-08-20T12:25:57;988.1;;;32.2;29.5
76046;BME280;64741;41.730;44.788;2023-08-20T12:30:57;988.1;;;32.2;29.3
76046;BME280;64741;41.730;44.788;2023-08-20T12:35:55;988;;;32.2;29.2
76046;BME280;64741;41.730;44.788;2023-08-20T12:40:43;988;;;32.1;29.1
76046;BME280;64741;41.730;44.788;2023-08-20T12:46:05;987.9;;;32.1;28.8
76046;BME280;64741;41.730;44.788;2023-08-20T12:51:05;987.8;;;32.2;28.6
76046;BME280;64741;41.730;44.788;2023-08-20T12:56:01;987.8;;;32.2;28.7
76046;BME280;64741;41.730;44.788;2023-08-20T13:00:57;987.8;;;32.3;29.2
76046;BME280;64741;41.730;44.788;2023-08-20T13:06:05;987.8;;;32.3;29.4
76046;BME280;64741;41.730;44.788;2023-08-20T13:11:01;987.9;;;32.3;29.1
76046;BME280;64741;41.730;44.788;2023-08-20T13:15:57;987.8;;;32.3;28.9
76046;BME280;64741;41.730;44.788;2023-08-20T13:20:59;987.8;;;32.3;28.9
76046;BME280;64741;41.730;44.788;2023-08-20T13:26:05;987.8;;;32.4;28.9
76046;BME280;64741;41.730;44.788;2023-08-20T13:31:05;987.8;;;32.4;29
76046;BME280;64741;41.730;44.788;2023-08-20T13:35:57;987.8;;;32.4;28.8
76046;BME280;64741;41.730;44.788;2023-08-20T13:41:05;987.8;;;32.4;28.5
76046;BME280;64741;41.730;44.788;2023-08-20T13:46:01;987.8;;;32.4;28.6
76046;BME280;64741;41.730;44.788;2023-08-20T13:51:01;987.9;;;32.5;28.5
76046;BME280;64741;41.730;44.788;2023-08-20T13:55:59;987.9;;;32.5;28.3
76046;BME280;64741;41.730;44.788;2023-08-20T14:00:57;987.8;;;32.5;28.3
76046;BME280;64741;41.730;44.788;2023-08-20T14:06:03;987.8;;;32.6;27.8
76046;BME280;64741;41.730;44.788;2023-08-20T14:10:59;987.8;;;32.6;26.8
76046;BME280;64741;41.730;44.788;2023-08-20T14:16:05;987.8;;;32.6;27
76046;BME280;64741;41.730;44.788;2023-08-20T14:20:59;987.9;;;32.6;27
76046;BME280;64741;41.730;44.788;2023-08-20T14:26:06;987.9;;;32.6;26
76046;BME280;64741;41.730;44.788;2023-08-20T14:31:01;987.9;;;32.6;26.4
76046;BME280;64741;41.730;44.788;2023-08-20T14:35:59;987.9;;;32.6;26.4
76046;BME280;64741;41.730;44.788;2023-08-20T14:41:05;987.9;;;32.7;26.3
76046;BME280;64741;41.730;44.788;2023-08-20T14:45:51;987.9;;;32.7;26.5
76046;BME280;64741;41.730;44.788;2023-08-20T14:51:03;987.9;;;32.7;26.8
76046;BME280;64741;41.730;44.788;2023-08-20T14:56:01;987.9;;;32.7;26.3
76046;BME280;64741;41.730;44.788;2023-08-20T15:01:01;988;;;32.6;26.1
76046;BME280;64741;41.730;44.788;2023-08-20T15:06:03;988;;;32.7;26
76046;BME280;64741;41.730;44.788;2023-08-20T15:10:57;988;;;32.7;26.5
76046;BME280;64741;41.730;44.788;2023-08-20T15:16:01;988.1;;;32.7;26
76046;BME280;64741;41.730;44.788;2023-08-20T15:21:05;988.1;;;32.7;25.2
76046;BME280;64741;41.730;44.788;2023-08-20T15:26:01;988.1;;;32.7;25.1
76046;BME280;64741;41.730;44.788;2023-08-20T15:31:00;988.2;;;32.7;25.1
76046;BME280;64741;41.730;44.788;2023-08-20T15:36:05;988.2;;;32.7;25.6
76046;BME280;64741;41.730;44.788;2023-08-20T15:41:01;988.3;;;32.7;25.7
76046;BME280;64741;41.730;44.788;2023-08-20T15:46:01;988.3;;;32.7;26
76046;BME280;64741;41.730;44.788;2023-08-20T15:50:59;988.4;;;32.7;25.7
76046;BME280;64741;41.730;44.788;2023-08-20T15:55:59;988.4;;;32.7;25.8
76046;BME280;64741;41.730;44.788;2023-08-20T16:00:43;988.5;;;32.7;26.1
76046;BME280;64741;41.730;44.788;2023-08-20T16:05:59;988.6;;;32.7;26.3
76046;BME280;64741;41.730;44.788;2023-08-20T16:11:05;988.7;;;32.7;26.6
76046;BME280;64741;41.730;44.788;2023-08-20T16:15:57;988.7;;;32.7;26.9
76046;BME280;64741;41.730;44.788;2023-08-20T16:21:07;988.8;;;32.7;27.2
76046;BME280;64741;41.730;44.788;2023-08-20T16:25:59;988.9;;;32.7;27.3
76046;BME280;64741;41.730;44.788;2023-08-20T16:30:57;989;;;32.7;27.4
76046;BME280;64741;41.730;44.788;2023-08-20T16:36:01;989;;;32.7;27.7
76046;BME280;64741;41.730;44.788;2023-08-20T16:40:59;989.1;;;32.6;27.9
76046;BME280;64741;41.730;44.788;2023-08-20T16:46:01;989.2;;;32.6;28.1
76046;BME280;64741;41.730;44.788;2023-08-20T16:50:58;989.3;;;32.6;28.2
76046;BME280;64741;41.730;44.788;2023-08-20T16:55:57;989.4;;;32.6;28.1
76046;BME280;64741;41.730;44.788;2023-08-20T17:00:57;989.4;;;32.6;28.2
76046;BME280;64741;41.730;44.788;2023-08-20T17:05:59;989.5;;;32.6;28.2
76046;BME280;64741;41.730;44.788;2023-08-20T17:11:06;989.6;;;32.5;27.8
76046;BME280;64741;41.730;44.788;2023-08-20T17:16:05;989.6;;;32.5;27.5
76046;BME280;64741;41.730;44.788;2023-08-20T17:21:01;989.7;;;32.5;27.8
76046;BME280;64741;41.730;44.788;2023-08-20T17:25:57;989.7;;;32.5;29
76046;BME280;64741;41.730;44.788;2023-08-20T17:31:05;989.8;;;32.4;30.2
76046;BME280;64741;41.730;44.788;2023-08-20T17:36:01;989.8;;;32.3;30.6
76046;BME280;64741;41.730;44.788;2023-08-20T17:40:49;989.9;;;32.2;31.1
76046;BME280;64741;41.730;44.788;2023-08-20T17:45:59;989.9;;;32.2;31.3
76046;BME280;64741;41.730;44.788;2023-08-20T17:51:05;990;;;32.2;31.5
76046;BME280;64741;41.730;44.788;2023-08-20T17:56:05;990;;;32.2;31
76046;BME280;64741;41.730;44.788;2023-08-20T18:00:57;990.1;;;32.2;31.8
76046;BME280;64741;41.730;44.788;2023-08-20T18:06:05;990.1;;;32.1;31.9
76046;BME280;64741;41.730;44.788;2023-08-20T18:11:01;990.2;;;32.1;31.8
76046;BME280;64741;41.730;44.788;2023-08-20T18:15:33;990.2;;;32.1;31.8
76046;BME280;64741;41.730;44.788;2023-08-20T18:20:59;990.2;;;32.2;31.9
76046;BME280;64741;41.730;44.788;2023-08-20T18:25:58;990.3;;;32.2;31.9
76046;BME280;64741;41.730;44.788;2023-08-20T18:31:01;990.3;;;32.3;31.6
76046;BME280;64741;41.730;44.788;2023-08-20T18:36:00;990.3;;;32.4;31.3
76046;BME280;64741;41.730;44.788;2023-08-20T18:41:02;990.3;;;32.4;31.2
76046;BME280;64741;41.730;44.788;2023-08-20T18:45:57;990.4;;;32.4;31.3
76046;BME280;64741;41.730;44.788;2023-08-20T18:51:06;990.4;;;32.4;31.2
76046;BME280;64741;41.730;44.788;2023-08-20T18:55:59;990.4;;;32.4;31.1
76046;BME280;64741;41.730;44.788;2023-08-20T19:00:57;990.5;;;32.4;31.1
76046;BME280;64741;41.730;44.788;2023-08-20T19:06:06;990.5;;;32.5;31.1
76046;BME280;64741;41.730;44.788;2023-08-20T19:11:07;990.5;;;32.5;31
76046;BME280;64741;41.730;44.788;2023-08-20T19:16:01;990.5;;;32.5;31
76046;BME280;64741;41.730;44.788;2023-08-20T19:20:57;990.5;;;32.5;31
76046;BME280;64741;41.730;44.788;2023-08-20T19:26:01;990.5;;;32.5;31
76046;BME280;64741;41.730;44.788;2023-08-20T19:31:03;990.5;;;32.5;31
76046;BME280;64741;41.730;44.788;2023-08-20T19:36:00;990.5;;;32.5;30.9
76046;BME280;64741;41.730;44.788;2023-08-20T19:40:57;990.5;;;32.5;30.9
76046;BME280;64741;41.730;44.788;2023-08-20T19:46:05;990.5;;;32.5;31
76046;BME280;64741;41.730;44.788;2023-08-20T19:51:01;990.5;;;32.5;30.9
76046;BME280;64741;41.730;44.788;2023-08-20T19:55:47;990.6;;;32.5;30.9
76046;BME280;64741;41.730;44.788;2023-08-20T20:00:51;990.6;;;32.5;31
76046;BME280;64741;41.730;44.788;2023-08-20T20:06:01;990.6;;;32.5;31
76046;BME280;64741;41.730;44.788;2023-08-20T20:11:01;990.6;;;32.4;30.7
76046;BME280;64741;41.730;44.788;2023-08-20T20:15:59;990.6;;;32.4;30.8
76046;BME280;64741;41.730;44.788;2023-08-20T20:20:59;990.6;;;32.4;30.9
76046;BME280;64741;41.730;44.788;2023-08-20T20:26:02;990.7;;;32.4;30.9
76046;BME280;64741;41.730;44.788;2023-08-20T20:30:59;990.7;;;32.5;30.8
76046;BME280;64741;41.730;44.788;2023-08-20T20:36:07;990.7;;;32.5;30.8
76046;BME280;64741;41.730;44.788;2023-08-20T20:40:59;990.7;;;32.5;30.8
76046;BME280;64741;41.730;44.788;2023-08-20T20:46:06;990.8;;;32.5;30.7
76046;BME280;64741;41.730;44.788;2023-08-20T20:50:59;990.7;;;32.5;30.1
76046;BME280;64741;41.730;44.788;2023-08-20T20:56:00;990.7;;;32.4;30.1
76046;BME280;64741;41.730;44.788;2023-08-20T21:01:01;990.7;;;32.4;30.2
76046;BME280;64741;41.730;44.788;2023-08-20T21:06:02;990.7;;;32.5;30.3
76046;BME280;64741;41.730;44.788;2023-08-20T21:11:01;990.7;;;32.4;30.6
76046;BME280;64741;41.730;44.788;2023-08-20T21:15:57;990.7;;;32.4;30.7
76046;BME280;64741;41.730;44.788;2023-08-20T21:20:57;990.7;;;32.4;30.7
76046;BME280;64741;41.730;44.788;2023-08-20T21:25:57;990.7;;;32.4;30.7
76046;BME280;64741;41.730;44.788;2023-08-20T21:30:55;990.7;;;32.4;30.7
76046;BME280;64741;41.730;44.788;2023-08-20T21:36:07;990.7;;;32.4;30.7
76046;BME280;64741;41.730;44.788;2023-08-20T21:40:53;990.7;;;32.4;30.8
76046;BME280;64741;41.730;44.788;2023-08-20T21:46:01;990.7;;;32.3;31
76046;BME280;64741;41.730;44.788;2023-08-20T21:50:57;990.8;;;32.2;31.1
76046;BME280;64741;41.730;44.788;2023-08-20T21:56:07;990.8;;;32.1;31
76046;BME280;64741;41.730;44.788;2023-08-20T22:01:01;990.8;;;32.1;31.1
76046;BME280;64741;41.730;44.788;2023-08-20T22:06:00;990.8;;;32;31.2
76046;BME280;64741;41.730;44.788;2023-08-20T22:11:00;990.8;;;32;31.4
76046;BME280;64741;41.730;44.788;2023-08-20T22:16:05;990.9;;;31.9;31.5
76046;BME280;64741;41.730;44.788;2023-08-20T22:21:06;991;;;31.9;31.6
76046;BME280;64741;41.730;44.788;2023-08-20T22:25:57;991;;;31.9;31.7
76046;BME280;64741;41.730;44.788;2023-08-20T22:31:08;991;;;31.9;31.7
76046;BME280;64741;41.730;44.788;2023-08-20T22:36:04;991;;;31.9;31.7
76046;BME280;64741;41.730;44.788;2023-08-20T22:40:57;991;;;31.8;31.8
76046;BME280;64741;41.730;44.788;2023-08-20T22:45:45;990.9;;;31.8;31.5
76046;BME280;64741;41.730;44.788;2023-08-20T22:50:57;990.9;;;31.7;31.6
76046;BME280;64741;41.730;44.788;2023-08-20T22:56:04;990.9;;;31.6;31.3
76046;BME280;64741;41.730;44.788;2023-08-20T23:01:00;990.9;;;31.5;31.6
76046;BME280;64741;41.730;44.788;2023-08-20T23:06:02;990.9;;;31.5;31.7
76046;BME280;64741;41.730;44.788;2023-08-20T23:10:58;990.9;;;31.4;31.6
76046;BME280;64741;41.730;44.788;2023-08-20T23:16:06;990.9;;;31.5;31.7
76046;BME280;64741;41.730;44.788;2023-08-20T23:21:00;990.9;;;31.5;31.8
76046;BME280;64741;41.730;44.788;2023-08-20T23:25:57;990.9;;;31.5;31.9
76046;BME280;64741;41.730;44.788;2023-08-20T23:31:06;990.9;;;31.5;31.8
76046;BME280;64741;41.730;44.788;2023-08-20T23:36:08;990.9;;;31.4;31.8
76046;BME280;64741;41.730;44.788;2023-08-20T23:41:02;990.9;;;31.3;31.2
76046;BME280;64741;41.730;44.788;2023-08-20T23:46:00;990.9;;;31.2;31.1
76046;BME280;64741;41.730;44.788;2023-08-20T23:51:04;990.9;;;31.2;31.4
76046;BME280;64741;41.730;44.788;2023-08-20T23:56:04;990.9;;;31.2;31.5
